Terminal Aerodrome Forecast
Issued by NWS Charleston, WV

Current Version | Previous Version | Graphics & Text | Print | Product List | Glossary On
Versions: 1 2 3 4 5 6 7 8 9 10 11 12 13 14 15 16 17 18 19 20 21 22
030
FTUS41 KRLX 201732
TAFBKW
TAF
KBKW 201732Z 2018/2118 36006KT P6SM SCT045
     FM202300 01003KT P6SM SKC
     FM210500 VRB02KT P6SM SKC
     FM211000 13002KT 6SM BR SKC
     FM211300 VRB03KT P6SM SKC
     FM211600 VRB03KT P6SM SCT045=

USA.gov is the U.S. government's official web portal to all federal, state and local government web resources and services.